createdAt,value
2019-04-26T00:01:40.074Z,87.60
2019-04-26T00:04:12.119Z,88.00
2019-04-26T00:06:41.019Z,88.60
2019-04-26T00:09:14.323Z,88.40
2019-04-26T00:11:47.016Z,88.30
2019-04-26T00:14:29.687Z,88.30
2019-04-26T00:17:02.420Z,87.90
2019-04-26T00:19:31.401Z,87.80
2019-04-26T00:22:00.351Z,89.80
2019-04-26T00:24:29.807Z,90.10
2019-04-26T00:26:58.293Z,89.10
2019-04-26T00:29:26.786Z,89.50
2019-04-26T00:31:55.419Z,87.00
2019-04-26T00:34:23.897Z,89.10
2019-04-26T00:36:53.066Z,86.60
2019-04-26T00:39:24.142Z,87.20
2019-04-26T00:41:51.838Z,88.10
2019-04-26T00:44:20.893Z,87.20
2019-04-26T00:46:49.487Z,87.60
2019-04-26T00:49:19.129Z,86.50
2019-04-26T00:51:49.171Z,87.20
2019-04-26T00:54:18.553Z,88.10
2019-04-26T00:56:47.680Z,87.60
2019-04-26T00:59:16.481Z,87.60
2019-04-26T01:01:47.425Z,88.00
2019-04-26T01:04:16.995Z,89.20
2019-04-26T01:06:47.277Z,89.10
2019-04-26T01:09:17.207Z,89.80
2019-04-26T01:11:45.858Z,90.50
2019-04-26T01:14:16.571Z,89.10
2019-04-26T01:16:46.151Z,88.40
2019-04-26T01:19:14.647Z,89.70
2019-04-26T01:21:46.407Z,89.00
2019-04-26T01:24:14.882Z,89.80
2019-04-26T01:26:43.400Z,88.10
2019-04-26T01:29:12.075Z,89.40
2019-04-26T01:31:49.799Z,89.10
2019-04-26T01:34:19.265Z,89.60
2019-04-26T01:36:48.337Z,88.40
2019-04-26T01:39:17.601Z,88.80
2019-04-26T01:41:51.328Z,89.20
2019-04-26T01:44:28.646Z,86.70
2019-04-26T01:46:57.242Z,88.60
2019-04-26T01:49:26.206Z,87.10
2019-04-26T01:51:58.220Z,88.00
2019-04-26T01:54:29.956Z,87.50
2019-04-26T01:57:01.983Z,88.30
2019-04-26T01:59:31.481Z,88.60
2019-04-26T02:02:19.524Z,86.90
2019-04-26T02:04:49.727Z,88.20
2019-04-26T02:07:36.047Z,86.50
2019-04-26T02:10:08.939Z,87.90
2019-04-26T02:12:37.789Z,87.40
2019-04-26T02:15:06.986Z,88.90
2019-04-26T02:17:35.543Z,88.70
2019-04-26T02:20:06.238Z,88.50
2019-04-26T02:22:36.356Z,89.70
2019-04-26T02:25:05.728Z,89.20
2019-04-26T02:27:34.560Z,89.60
2019-04-26T02:30:04.284Z,89.00
2019-04-26T02:32:34.449Z,89.10
2019-04-26T02:35:02.914Z,88.80
2019-04-26T02:37:32.777Z,88.40
2019-04-26T02:40:01.630Z,88.90
2019-04-26T02:42:34.957Z,88.30
2019-04-26T02:45:30.949Z,88.30
2019-04-26T02:48:01.575Z,87.10
2019-04-26T02:50:36.580Z,87.70
2019-04-26T02:53:24.101Z,87.80
2019-04-26T02:56:07.613Z,86.50
2019-04-26T02:58:58.848Z,87.00
2019-04-26T03:01:29.283Z,86.90
2019-04-26T03:03:57.887Z,87.60
2019-04-26T03:06:26.303Z,88.40
2019-04-26T03:08:57.315Z,87.90
2019-04-26T03:11:31.454Z,87.50
2019-04-26T03:14:11.784Z,88.40
2019-04-26T03:16:51.023Z,86.90
2019-04-26T03:19:31.487Z,88.30
2019-04-26T03:22:09.144Z,88.50
2019-04-26T03:24:58.791Z,89.20
2019-04-26T03:27:45.820Z,87.80
2019-04-26T03:30:26.246Z,89.40
2019-04-26T03:33:18.804Z,87.90
2019-04-26T03:35:58.425Z,88.20
2019-04-26T03:38:53.147Z,88.30
2019-04-26T03:41:26.467Z,88.30
2019-04-26T03:44:13.772Z,88.20
2019-04-26T03:46:47.625Z,88.40
2019-04-26T03:49:25.214Z,88.60
2019-04-26T03:52:17.475Z,88.20
2019-04-26T03:54:47.459Z,84.80
2019-04-26T03:57:26.627Z,87.30
2019-04-26T04:00:00.000Z,87.60
2019-04-26T04:02:43.561Z,87.40
2019-04-26T04:05:20.330Z,87.30
2019-04-26T04:07:51.433Z,86.80
2019-04-26T04:10:28.676Z,85.70
2019-04-26T04:13:00.455Z,85.00
2019-04-26T04:15:35.124Z,84.70
2019-04-26T04:18:09.395Z,82.70
2019-04-26T04:20:46.203Z,83.20
2019-04-26T04:23:39.826Z,83.30
2019-04-26T04:26:09.237Z,83.30
2019-04-26T04:28:52.975Z,83.90
2019-04-26T04:31:24.779Z,84.10
2019-04-26T04:34:02.048Z,84.30
2019-04-26T04:36:33.732Z,84.40
2019-04-26T04:39:16.687Z,85.40
2019-04-26T04:42:18.538Z,83.80
2019-04-26T04:45:02.766Z,84.90
2019-04-26T04:47:46.045Z,85.40
2019-04-26T04:50:33.057Z,85.00
2019-04-26T04:53:04.721Z,84.50
2019-04-26T04:55:47.973Z,83.80
2019-04-26T04:58:27.230Z,83.70
2019-04-26T05:01:33.216Z,82.50
2019-04-26T05:04:18.214Z,81.70
2019-04-26T05:07:12.325Z,80.30
2019-04-26T05:10:14.387Z,80.00
2019-04-26T05:13:01.275Z,79.70
2019-04-26T05:16:09.205Z,80.90
2019-04-26T05:18:50.543Z,79.30
2019-04-26T05:21:28.300Z,78.10
2019-04-26T05:24:03.173Z,78.30
2019-04-26T05:26:39.233Z,77.30
2019-04-26T05:29:39.743Z,77.30
2019-04-26T05:32:17.209Z,76.40
2019-04-26T05:35:12.576Z,75.60
2019-04-26T05:38:18.075Z,73.30
2019-04-26T05:41:00.140Z,71.90
2019-04-26T05:43:42.083Z,71.00
2019-04-26T05:46:32.626Z,69.00
2019-04-26T05:49:20.976Z,69.00
2019-04-26T05:52:27.662Z,68.30
2019-04-26T05:55:18.510Z,67.30
2019-04-26T05:57:52.617Z,67.00
2019-04-26T06:00:26.073Z,66.00
2019-04-26T06:03:20.516Z,66.00
2019-04-26T06:05:56.678Z,65.00
2019-04-26T06:08:45.004Z,64.00
2019-04-26T06:11:21.167Z,63.30
2019-04-26T06:14:35.294Z,62.70
2019-04-26T06:17:26.560Z,59.90
2019-04-26T06:20:23.082Z,59.10
2019-04-26T06:23:03.729Z,57.30
2019-04-26T06:25:39.236Z,57.40
2019-04-26T06:28:31.840Z,55.40
2019-04-26T06:31:09.063Z,53.30
2019-04-26T06:33:43.675Z,52.70
2019-04-26T06:36:13.841Z,53.80
2019-04-26T06:39:04.244Z,52.50
2019-04-26T06:42:05.875Z,51.30
2019-04-26T06:44:57.057Z,50.50
2019-04-26T06:47:36.137Z,50.30
2019-04-26T06:50:12.373Z,48.90
2019-04-26T06:52:58.980Z,49.00
2019-04-26T06:55:37.749Z,47.90
2019-04-26T06:58:25.959Z,48.40
2019-04-26T07:01:14.060Z,48.50
2019-04-26T07:04:17.366Z,48.00
2019-04-26T07:06:54.903Z,47.80
2019-04-26T07:09:29.516Z,47.90
2019-04-26T07:12:27.185Z,48.20
2019-04-26T07:15:28.068Z,47.00
2019-04-26T07:17:49.440Z,45.70
2019-04-26T07:20:31.404Z,46.00
2019-04-26T07:23:25.852Z,44.70
2019-04-26T07:26:24.806Z,44.50
2019-04-26T07:29:07.792Z,43.50
2019-04-26T07:31:45.135Z,44.00
2019-04-26T07:34:32.784Z,42.30
2019-04-26T07:37:04.696Z,42.10
2019-04-26T07:39:43.917Z,39.90
2019-04-26T07:42:50.325Z,40.60
2019-04-26T07:45:32.682Z,40.80
2019-04-26T07:48:19.674Z,39.00
2019-04-26T07:51:23.309Z,39.30
2019-04-26T07:54:06.910Z,39.30
2019-04-26T07:56:56.218Z,37.60
2019-04-26T07:59:49.236Z,36.80
2019-04-26T08:02:31.755Z,35.20
2019-04-26T08:05:07.471Z,33.70
2019-04-26T08:07:45.528Z,33.80
2019-04-26T08:10:16.457Z,33.60
2019-04-26T08:12:48.125Z,32.50
2019-04-26T08:15:34.602Z,32.20
2019-04-26T08:18:05.236Z,32.20
2019-04-26T08:20:39.715Z,31.10
2019-04-26T08:23:16.047Z,29.30
2019-04-26T08:25:38.670Z,28.60
2019-04-26T08:28:08.339Z,28.10
2019-04-26T08:30:46.273Z,27.50
2019-04-26T08:33:16.157Z,27.10
2019-04-26T08:35:48.628Z,27.30
2019-04-26T08:38:21.024Z,26.00
2019-04-26T08:41:05.129Z,26.30
2019-04-26T08:43:36.396Z,26.30
2019-04-26T08:46:13.107Z,24.90
2019-04-26T08:49:03.713Z,24.50
2019-04-26T08:51:32.401Z,25.50
2019-04-26T08:54:00.927Z,25.40
2019-04-26T08:56:35.664Z,24.30
2019-04-26T08:59:24.475Z,24.70
2019-04-26T09:02:00.543Z,24.60
2019-04-26T09:04:30.720Z,24.10
2019-04-26T09:07:10.110Z,23.00
2019-04-26T09:09:39.236Z,24.10
2019-04-26T09:12:22.480Z,23.60
2019-04-26T09:14:43.887Z,23.20
2019-04-26T09:17:12.481Z,22.60
2019-04-26T09:19:41.029Z,23.20
2019-04-26T09:22:13.858Z,22.80
2019-04-26T09:24:49.770Z,22.80
2019-04-26T09:27:22.872Z,21.20
2019-04-26T09:30:09.551Z,21.90
2019-04-26T09:32:52.044Z,21.70
2019-04-26T09:35:20.542Z,21.10
2019-04-26T09:37:48.942Z,22.10
2019-04-26T09:40:21.526Z,21.10
2019-04-26T09:43:10.555Z,19.70
2019-04-26T09:45:39.024Z,20.20
2019-04-26T09:48:20.854Z,20.60
2019-04-26T09:50:50.960Z,20.60
2019-04-26T09:53:19.713Z,21.50
2019-04-26T09:55:48.186Z,21.50
2019-04-26T09:58:16.807Z,21.20
2019-04-26T10:00:48.468Z,19.40
2019-04-26T10:03:15.652Z,19.90
2019-04-26T10:05:44.162Z,20.50
2019-04-26T10:08:14.476Z,20.50
2019-04-26T10:10:43.233Z,20.40
2019-04-26T10:13:15.112Z,20.20
2019-04-26T10:15:48.220Z,20.60
2019-04-26T10:18:24.264Z,20.40
2019-04-26T10:20:51.485Z,19.40
2019-04-26T10:23:20.021Z,18.50
2019-04-26T10:25:51.929Z,20.00
2019-04-26T10:28:18.826Z,19.70
2019-04-26T10:30:47.378Z,20.20
2019-04-26T10:33:16.028Z,20.20
2019-04-26T10:35:44.560Z,19.80
2019-04-26T10:38:13.111Z,19.20
2019-04-26T10:40:41.648Z,19.80
2019-04-26T10:43:10.562Z,19.10
2019-04-26T10:45:39.059Z,20.00
2019-04-26T10:48:09.724Z,20.20
2019-04-26T10:50:37.791Z,19.20
2019-04-26T10:53:17.247Z,19.40
2019-04-26T10:55:56.244Z,19.30
2019-04-26T10:58:26.351Z,20.10
2019-04-26T11:01:02.531Z,20.50
2019-04-26T11:03:31.101Z,20.20
2019-04-26T11:05:59.505Z,19.30
2019-04-26T11:08:28.154Z,19.00
2019-04-26T11:10:56.786Z,19.40
2019-04-26T11:13:25.404Z,18.70
2019-04-26T11:15:53.987Z,18.20
2019-04-26T11:18:27.559Z,18.20
2019-04-26T11:20:52.621Z,18.10
2019-04-26T11:23:21.170Z,18.60
2019-04-26T11:25:49.695Z,18.90
2019-04-26T11:28:21.514Z,19.40
2019-04-26T11:30:52.150Z,18.50
2019-04-26T11:33:18.699Z,19.60
2019-04-26T11:35:47.320Z,19.30
2019-04-26T11:38:15.917Z,18.80
2019-04-26T11:40:48.460Z,18.20
2019-04-26T11:43:15.835Z,18.80
2019-04-26T11:45:45.334Z,18.00
2019-04-26T11:48:14.925Z,18.40
2019-04-26T11:50:43.465Z,18.90
2019-04-26T11:53:11.876Z,19.00
2019-04-26T11:55:40.405Z,18.70
2019-04-26T11:58:08.940Z,19.80
2019-04-26T12:00:45.077Z,19.40
2019-04-26T12:03:13.550Z,18.90
2019-04-26T12:05:43.592Z,19.30
2019-04-26T12:08:13.724Z,19.00
2019-04-26T12:10:44.391Z,18.60
2019-04-26T12:13:12.356Z,18.70
2019-04-26T12:15:43.809Z,18.60
2019-04-26T12:18:11.274Z,18.30
2019-04-26T12:20:39.948Z,19.00
2019-04-26T12:23:08.489Z,19.10
2019-04-26T12:25:38.725Z,19.50
2019-04-26T12:28:07.405Z,19.10
2019-04-26T12:30:36.162Z,18.80
2019-04-26T12:33:04.640Z,18.60
2019-04-26T12:35:33.118Z,19.20
2019-04-26T12:38:01.752Z,18.90
2019-04-26T12:40:30.228Z,18.10
2019-04-26T12:42:58.688Z,18.50
2019-04-26T12:45:37.636Z,19.10
2019-04-26T12:48:12.423Z,19.40
2019-04-26T12:50:40.935Z,18.80
2019-04-26T12:53:09.545Z,19.40
2019-04-26T12:55:38.153Z,18.80
2019-04-26T12:58:06.699Z,19.30
2019-04-26T13:00:37.496Z,19.40
2019-04-26T13:03:19.388Z,18.90
2019-04-26T13:05:36.764Z,19.50
2019-04-26T13:08:05.332Z,19.50
2019-04-26T13:10:37.821Z,21.10
2019-04-26T13:13:26.079Z,20.30
2019-04-26T13:15:59.109Z,20.10
2019-04-26T13:18:27.633Z,21.10
2019-04-26T13:20:58.601Z,21.40
2019-04-26T13:23:30.033Z,22.20
2019-04-26T13:25:59.802Z,21.90
2019-04-26T13:28:26.743Z,22.60
2019-04-26T13:30:55.130Z,23.00
2019-04-26T13:33:27.363Z,22.90
2019-04-26T13:36:02.694Z,23.30
2019-04-26T13:38:23.995Z,22.30
2019-04-26T13:40:52.548Z,23.20
2019-04-26T13:43:22.634Z,23.40
2019-04-26T13:45:55.729Z,24.10
2019-04-26T13:48:31.685Z,23.20
2019-04-26T13:51:02.799Z,23.30
2019-04-26T13:53:31.910Z,23.40
2019-04-26T13:56:02.061Z,23.90
2019-04-26T13:58:30.645Z,23.60
2019-04-26T14:00:59.245Z,23.70
2019-04-26T14:03:31.574Z,24.50
2019-04-26T14:05:58.103Z,23.50
2019-04-26T14:08:26.659Z,24.30
2019-04-26T14:10:55.113Z,23.70
2019-04-26T14:13:24.918Z,24.10
2019-04-26T14:15:53.831Z,24.10
2019-04-26T14:18:22.298Z,24.20
2019-04-26T14:20:54.800Z,24.20
2019-04-26T14:23:22.633Z,24.80
2019-04-26T14:26:10.981Z,24.80
2019-04-26T14:28:41.921Z,25.40
2019-04-26T14:31:12.153Z,25.10
2019-04-26T14:33:39.925Z,25.20
2019-04-26T14:36:17.556Z,25.60
2019-04-26T14:38:40.224Z,25.90
2019-04-26T14:41:08.952Z,25.20
2019-04-26T14:43:41.105Z,25.20
2019-04-26T14:46:10.494Z,24.90
2019-04-26T14:48:40.501Z,25.30
2019-04-26T14:51:08.581Z,25.10
2019-04-26T14:53:38.144Z,26.00
2019-04-26T14:56:06.752Z,25.50
2019-04-26T14:58:35.361Z,25.90
2019-04-26T15:01:05.526Z,25.60
2019-04-26T15:03:35.696Z,27.10
2019-04-26T15:06:05.731Z,27.20
2019-04-26T15:08:34.351Z,26.80
2019-04-26T15:11:04.412Z,26.70
2019-04-26T15:13:36.324Z,27.00
2019-04-26T15:16:10.031Z,27.20
2019-04-26T15:18:36.971Z,27.50
2019-04-26T15:21:04.278Z,28.10
2019-04-26T15:23:33.012Z,28.30
2019-04-26T15:26:03.082Z,27.80
2019-04-26T15:28:33.219Z,27.70
2019-04-26T15:31:02.315Z,27.70
2019-04-26T15:33:32.525Z,27.70
2019-04-26T15:36:02.257Z,28.60
2019-04-26T15:38:35.202Z,28.00
2019-04-26T15:41:11.787Z,27.80
2019-04-26T15:43:46.771Z,28.70
2019-04-26T15:46:17.744Z,28.50
2019-04-26T15:48:54.592Z,29.70
2019-04-26T15:51:24.441Z,30.50
2019-04-26T15:53:53.055Z,30.70
2019-04-26T15:56:22.296Z,31.30
2019-04-26T15:58:52.221Z,32.20
2019-04-26T16:01:20.729Z,33.40
2019-04-26T16:03:49.204Z,33.70
2019-04-26T16:06:37.495Z,33.60
2019-04-26T16:09:09.004Z,33.70
2019-04-26T16:11:37.398Z,34.40
2019-04-26T16:14:05.933Z,34.50
2019-04-26T16:16:34.666Z,35.40
2019-04-26T16:19:03.201Z,35.00
2019-04-26T16:21:32.421Z,36.00
2019-04-26T16:24:02.661Z,35.20
2019-04-26T16:26:32.780Z,36.00
2019-04-26T16:29:06.122Z,36.40
2019-04-26T16:31:42.066Z,36.30
2019-04-26T16:34:19.700Z,37.10
2019-04-26T16:36:48.098Z,36.30
2019-04-26T16:39:16.558Z,38.10
2019-04-26T16:41:45.085Z,37.90
2019-04-26T16:44:13.702Z,38.30
2019-04-26T16:46:43.868Z,38.40
2019-04-26T16:49:14.073Z,38.60
2019-04-26T16:51:43.571Z,39.70
2019-04-26T16:54:21.044Z,39.10
2019-04-26T16:56:43.975Z,39.60
2019-04-26T16:59:14.352Z,39.70
2019-04-26T17:01:47.171Z,39.90
2019-04-26T17:04:14.141Z,40.10
2019-04-26T17:06:44.729Z,40.50
2019-04-26T17:09:14.324Z,41.50
2019-04-26T17:11:43.536Z,41.40
2019-04-26T17:14:13.240Z,42.00
2019-04-26T17:16:42.409Z,42.50
2019-04-26T17:19:13.490Z,43.00
2019-04-26T17:21:43.856Z,43.00
2019-04-26T17:24:13.915Z,43.50
2019-04-26T17:26:44.034Z,44.10
2019-04-26T17:29:12.557Z,44.80
2019-04-26T17:31:41.088Z,44.70
2019-04-26T17:34:09.561Z,45.50
2019-04-26T17:36:37.957Z,45.60
2019-04-26T17:39:11.001Z,46.70
2019-04-26T17:41:45.119Z,47.10
2019-04-26T17:44:11.238Z,46.90
2019-04-26T17:46:39.293Z,47.90
2019-04-26T17:49:07.681Z,47.90
2019-04-26T17:51:43.713Z,49.20
2019-04-26T17:54:33.818Z,49.80
2019-04-26T17:56:39.627Z,49.70
2019-04-26T17:59:09.137Z,50.30
2019-04-26T18:01:45.293Z,50.80
2019-04-26T18:04:06.961Z,51.30
2019-04-26T18:06:35.481Z,51.50
2019-04-26T18:09:05.389Z,51.80
2019-04-26T18:11:33.985Z,51.70
2019-04-26T18:14:02.526Z,52.30
2019-04-26T18:16:30.974Z,52.30
2019-04-26T18:19:05.094Z,52.70
2019-04-26T18:21:59.482Z,53.20
2019-04-26T18:24:27.550Z,53.80
2019-04-26T18:26:59.048Z,54.20
2019-04-26T18:29:29.258Z,54.60
2019-04-26T18:31:54.504Z,55.10
2019-04-26T18:34:23.221Z,55.50
2019-04-26T18:36:51.812Z,55.70
2019-04-26T18:39:22.884Z,56.40
2019-04-26T18:41:50.456Z,57.20
2019-04-26T18:44:18.845Z,56.90
2019-04-26T18:46:58.021Z,57.00
2019-04-26T18:49:27.180Z,58.40
2019-04-26T18:51:55.665Z,58.50
2019-04-26T18:54:25.844Z,58.80
2019-04-26T18:56:56.086Z,60.10
2019-04-26T18:59:24.543Z,60.00
2019-04-26T19:01:54.076Z,61.60
2019-04-26T19:04:23.623Z,61.30
2019-04-26T19:06:52.230Z,60.70
2019-04-26T19:09:22.441Z,61.50
2019-04-26T19:11:52.839Z,61.90
2019-04-26T19:14:48.817Z,62.80
2019-04-26T19:17:12.266Z,63.40
2019-04-26T19:19:58.703Z,63.50
2019-04-26T19:22:27.351Z,64.40
2019-04-26T19:24:57.452Z,65.30
2019-04-26T19:27:27.587Z,66.00
2019-04-26T19:29:56.033Z,64.80
2019-04-26T19:32:28.391Z,65.50
2019-04-26T19:35:00.799Z,68.40
2019-04-26T19:37:30.447Z,69.20
2019-04-26T19:39:57.026Z,69.00
2019-04-26T19:42:27.062Z,67.00
2019-04-26T19:45:11.707Z,70.40
2019-04-26T19:47:27.327Z,70.00
2019-04-26T19:50:03.178Z,70.20
2019-04-26T19:52:47.973Z,70.20
2019-04-26T19:55:34.544Z,70.50
2019-04-26T19:58:16.241Z,70.00
2019-04-26T20:00:45.141Z,69.40
2019-04-26T20:03:13.461Z,69.20
2019-04-26T20:05:44.206Z,68.40
2019-04-26T20:08:12.054Z,69.50
2019-04-26T20:10:43.247Z,72.90
2019-04-26T20:13:15.211Z,72.40
2019-04-26T20:15:42.246Z,72.00
2019-04-26T20:18:12.236Z,71.60
2019-04-26T20:20:41.416Z,72.60
2019-04-26T20:23:10.134Z,73.00
2019-04-26T20:25:38.825Z,72.40
2019-04-26T20:28:07.336Z,71.90
2019-04-26T20:30:53.513Z,74.10
2019-04-26T20:33:22.460Z,73.30
2019-04-26T20:35:51.492Z,74.00
2019-04-26T20:38:20.089Z,73.30
2019-04-26T20:40:49.005Z,73.30
2019-04-26T20:43:24.341Z,72.40
2019-04-26T20:46:02.057Z,73.10
2019-04-26T20:48:18.004Z,74.20
2019-04-26T20:50:46.465Z,72.90
2019-04-26T20:53:14.921Z,72.60
2019-04-26T20:55:43.324Z,74.20
2019-04-26T20:58:11.928Z,75.20
2019-04-26T21:00:53.474Z,73.90
2019-04-26T21:03:21.151Z,76.30
2019-04-26T21:05:46.359Z,75.20
2019-04-26T21:08:12.372Z,73.50
2019-04-26T21:10:41.779Z,76.30
2019-04-26T21:13:12.077Z,75.20
2019-04-26T21:15:53.466Z,76.20
2019-04-26T21:18:12.037Z,75.80
2019-04-26T21:20:42.473Z,77.10
2019-04-26T21:23:13.348Z,76.30
2019-04-26T21:25:45.378Z,76.60
2019-04-26T21:28:15.417Z,77.80
2019-04-26T21:30:51.551Z,79.10
2019-04-26T21:33:21.855Z,78.20
2019-04-26T21:35:57.656Z,76.10
2019-04-26T21:38:35.672Z,78.60
2019-04-26T21:41:11.342Z,76.90
2019-04-26T21:43:38.308Z,78.10
2019-04-26T21:46:09.280Z,76.70
2019-04-26T21:48:37.375Z,78.70
2019-04-26T21:51:08.572Z,79.20
2019-04-26T21:53:38.249Z,78.90
2019-04-26T21:56:07.442Z,78.00
2019-04-26T21:58:37.003Z,76.70
2019-04-26T22:01:15.710Z,79.70
2019-04-26T22:03:47.441Z,79.60
2019-04-26T22:06:14.222Z,79.30
2019-04-26T22:08:47.110Z,79.10
2019-04-26T22:11:19.756Z,78.60
2019-04-26T22:13:50.420Z,77.90
2019-04-26T22:16:33.805Z,78.60
2019-04-26T22:19:04.107Z,80.00
2019-04-26T22:21:36.877Z,80.00
2019-04-26T22:24:13.230Z,79.80
2019-04-26T22:26:46.871Z,80.60
2019-04-26T22:29:16.470Z,80.80
2019-04-26T22:31:42.543Z,81.10
2019-04-26T22:34:12.819Z,80.10
2019-04-26T22:36:43.684Z,79.90
2019-04-26T22:39:18.566Z,80.70
2019-04-26T22:41:47.046Z,81.10
2019-04-26T22:44:34.616Z,81.80
2019-04-26T22:47:17.063Z,81.80
2019-04-26T22:49:45.527Z,79.70
2019-04-26T22:52:16.200Z,79.70
2019-04-26T22:54:46.569Z,79.70
2019-04-26T22:57:16.217Z,80.50
2019-04-26T22:59:49.988Z,80.00
2019-04-26T23:02:18.590Z,80.10
2019-04-26T23:04:45.704Z,81.10
2019-04-26T23:07:18.501Z,82.50
2019-04-26T23:09:51.998Z,81.20
2019-04-26T23:12:24.957Z,84.10
2019-04-26T23:14:55.069Z,82.40
2019-04-26T23:17:39.480Z,81.60
2019-04-26T23:20:29.111Z,82.00
2019-04-26T23:22:55.684Z,80.90
2019-04-26T23:25:27.762Z,81.00
2019-04-26T23:27:57.288Z,80.80
2019-04-26T23:30:27.790Z,82.40
2019-04-26T23:32:54.749Z,83.30
2019-04-26T23:35:23.196Z,82.80
2019-04-26T23:37:51.665Z,83.00
2019-04-26T23:40:39.569Z,83.10
2019-04-26T23:43:07.942Z,82.50
2019-04-26T23:45:36.453Z,84.20
2019-04-26T23:48:07.867Z,84.20
2019-04-26T23:50:34.992Z,83.20
2019-04-26T23:53:03.437Z,81.40
2019-04-26T23:55:33.815Z,81.60
2019-04-26T23:58:06.477Z,86.10
